sensor_id;sensor_type;location;lat;lon;timestamp;P1;durP1;ratioP1;P2;durP2;ratioP2
37527;SDS011;23372;52.050;4.810;2023-02-28T00:00:24;5.13;;;2.60;;
37527;SDS011;23372;52.050;4.810;2023-02-28T00:02:49;3.27;;;2.00;;
37527;SDS011;23372;52.050;4.810;2023-02-28T00:05:19;5.27;;;2.03;;
37527;SDS011;23372;52.050;4.810;2023-02-28T00:07:47;4.30;;;2.00;;
37527;SDS011;23372;52.050;4.810;2023-02-28T00:10:16;4.67;;;2.13;;
37527;SDS011;23372;52.050;4.810;2023-02-28T00:12:45;5.47;;;1.93;;
37527;SDS011;23372;52.050;4.810;2023-02-28T00:15:15;5.83;;;2.30;;
37527;SDS011;23372;52.050;4.810;2023-02-28T00:17:40;3.93;;;1.87;;
37527;SDS011;23372;52.050;4.810;2023-02-28T00:20:08;5.27;;;2.17;;
37527;SDS011;23372;52.050;4.810;2023-02-28T00:22:35;12.07;;;2.07;;
37527;SDS011;23372;52.050;4.810;2023-02-28T00:25:01;4.43;;;2.30;;
37527;SDS011;23372;52.050;4.810;2023-02-28T00:27:28;2.93;;;1.83;;
37527;SDS011;23372;52.050;4.810;2023-02-28T00:29:54;7.97;;;2.20;;
37527;SDS011;23372;52.050;4.810;2023-02-28T00:32:19;6.13;;;2.10;;
37527;SDS011;23372;52.050;4.810;2023-02-28T00:34:45;5.70;;;2.00;;
37527;SDS011;23372;52.050;4.810;2023-02-28T00:37:11;4.50;;;1.77;;
37527;SDS011;23372;52.050;4.810;2023-02-28T00:39:37;8.67;;;2.50;;
37527;SDS011;23372;52.050;4.810;2023-02-28T00:42:04;4.23;;;1.67;;
37527;SDS011;23372;52.050;4.810;2023-02-28T00:44:30;4.57;;;1.97;;
37527;SDS011;23372;52.050;4.810;2023-02-28T00:46:56;7.83;;;3.40;;
37527;SDS011;23372;52.050;4.810;2023-02-28T00:49:23;4.83;;;1.93;;
37527;SDS011;23372;52.050;4.810;2023-02-28T00:51:49;4.10;;;1.80;;
37527;SDS011;23372;52.050;4.810;2023-02-28T00:54:15;5.77;;;1.90;;
37527;SDS011;23372;52.050;4.810;2023-02-28T00:56:41;4.23;;;1.70;;
37527;SDS011;23372;52.050;4.810;2023-02-28T00:59:06;5.30;;;1.73;;
37527;SDS011;23372;52.050;4.810;2023-02-28T01:01:32;8.27;;;2.13;;
37527;SDS011;23372;52.050;4.810;2023-02-28T01:03:57;2.90;;;1.50;;
37527;SDS011;23372;52.050;4.810;2023-02-28T01:06:23;5.57;;;2.60;;
37527;SDS011;23372;52.050;4.810;2023-02-28T01:08:49;5.27;;;1.80;;
37527;SDS011;23372;52.050;4.810;2023-02-28T01:11:15;4.63;;;1.90;;
37527;SDS011;23372;52.050;4.810;2023-02-28T01:13:43;3.93;;;1.90;;
37527;SDS011;23372;52.050;4.810;2023-02-28T01:16:09;6.00;;;2.33;;
37527;SDS011;23372;52.050;4.810;2023-02-28T01:18:35;7.47;;;2.87;;
37527;SDS011;23372;52.050;4.810;2023-02-28T01:21:09;6.63;;;2.00;;
37527;SDS011;23372;52.050;4.810;2023-02-28T01:23:39;5.13;;;1.60;;
37527;SDS011;23372;52.050;4.810;2023-02-28T01:28:32;3.53;;;1.90;;
37527;SDS011;23372;52.050;4.810;2023-02-28T01:30:57;7.33;;;2.50;;
37527;SDS011;23372;52.050;4.810;2023-02-28T01:33:23;2.53;;;1.80;;
37527;SDS011;23372;52.050;4.810;2023-02-28T01:35:48;4.97;;;1.90;;
37527;SDS011;23372;52.050;4.810;2023-02-28T01:38:14;5.63;;;2.07;;
37527;SDS011;23372;52.050;4.810;2023-02-28T01:40:40;5.90;;;2.00;;
37527;SDS011;23372;52.050;4.810;2023-02-28T01:43:12;3.07;;;1.90;;
37527;SDS011;23372;52.050;4.810;2023-02-28T01:45:45;5.70;;;1.90;;
37527;SDS011;23372;52.050;4.810;2023-02-28T01:48:10;6.13;;;1.83;;
37527;SDS011;23372;52.050;4.810;2023-02-28T01:50:38;5.87;;;2.20;;
37527;SDS011;23372;52.050;4.810;2023-02-28T01:53:07;3.23;;;1.80;;
37527;SDS011;23372;52.050;4.810;2023-02-28T01:55:35;5.47;;;1.80;;
37527;SDS011;23372;52.050;4.810;2023-02-28T01:58:02;6.90;;;2.30;;
37527;SDS011;23372;52.050;4.810;2023-02-28T02:00:30;4.67;;;2.10;;
37527;SDS011;23372;52.050;4.810;2023-02-28T02:02:57;6.13;;;2.40;;
37527;SDS011;23372;52.050;4.810;2023-02-28T02:05:26;7.37;;;2.13;;
37527;SDS011;23372;52.050;4.810;2023-02-28T02:07:56;5.03;;;2.10;;
37527;SDS011;23372;52.050;4.810;2023-02-28T02:10:29;5.13;;;2.07;;
37527;SDS011;23372;52.050;4.810;2023-02-28T02:18:33;9.67;;;2.60;;
37527;SDS011;23372;52.050;4.810;2023-02-28T02:23:55;5.30;;;2.13;;
37527;SDS011;23372;52.050;4.810;2023-02-28T02:29:32;7.13;;;2.40;;
37527;SDS011;23372;52.050;4.810;2023-02-28T02:37:54;5.40;;;2.33;;
37527;SDS011;23372;52.050;4.810;2023-02-28T02:43:36;4.73;;;2.57;;
37527;SDS011;23372;52.050;4.810;2023-02-28T02:46:29;6.60;;;2.67;;
37527;SDS011;23372;52.050;4.810;2023-02-28T02:49:16;6.23;;;2.70;;
37527;SDS011;23372;52.050;4.810;2023-02-28T02:51:55;4.57;;;2.43;;
37527;SDS011;23372;52.050;4.810;2023-02-28T02:54:27;8.73;;;2.87;;
37527;SDS011;23372;52.050;4.810;2023-02-28T02:56:59;6.77;;;2.20;;
37527;SDS011;23372;52.050;4.810;2023-02-28T02:59:30;6.57;;;2.43;;
37527;SDS011;23372;52.050;4.810;2023-02-28T03:02:00;4.80;;;2.27;;
37527;SDS011;23372;52.050;4.810;2023-02-28T03:04:30;4.73;;;2.40;;
37527;SDS011;23372;52.050;4.810;2023-02-28T03:07:01;7.13;;;3.27;;
37527;SDS011;23372;52.050;4.810;2023-02-28T03:09:26;5.20;;;2.43;;
37527;SDS011;23372;52.050;4.810;2023-02-28T03:11:53;9.23;;;2.57;;
37527;SDS011;23372;52.050;4.810;2023-02-28T03:14:24;7.83;;;3.17;;
37527;SDS011;23372;52.050;4.810;2023-02-28T03:17:03;3.80;;;2.43;;
37527;SDS011;23372;52.050;4.810;2023-02-28T03:24:59;6.03;;;2.70;;
37527;SDS011;23372;52.050;4.810;2023-02-28T03:32:49;5.53;;;2.57;;
37527;SDS011;23372;52.050;4.810;2023-02-28T03:35:30;7.60;;;2.80;;
37527;SDS011;23372;52.050;4.810;2023-02-28T03:38:05;5.63;;;2.50;;
37527;SDS011;23372;52.050;4.810;2023-02-28T03:40:39;7.07;;;3.03;;
37527;SDS011;23372;52.050;4.810;2023-02-28T03:43:10;8.33;;;3.63;;
37527;SDS011;23372;52.050;4.810;2023-02-28T03:45:42;7.40;;;3.40;;
37527;SDS011;23372;52.050;4.810;2023-02-28T03:48:15;7.93;;;3.40;;
37527;SDS011;23372;52.050;4.810;2023-02-28T03:51:04;4.73;;;2.57;;
37527;SDS011;23372;52.050;4.810;2023-02-28T03:53:36;5.77;;;2.63;;
37527;SDS011;23372;52.050;4.810;2023-02-28T03:56:09;8.37;;;4.03;;
37527;SDS011;23372;52.050;4.810;2023-02-28T04:01:55;5.73;;;3.30;;
37527;SDS011;23372;52.050;4.810;2023-02-28T04:04:14;6.13;;;2.93;;
37527;SDS011;23372;52.050;4.810;2023-02-28T04:06:41;8.67;;;3.00;;
37527;SDS011;23372;52.050;4.810;2023-02-28T04:09:08;6.43;;;2.67;;
37527;SDS011;23372;52.050;4.810;2023-02-28T04:14:14;7.27;;;3.27;;
37527;SDS011;23372;52.050;4.810;2023-02-28T04:16:40;6.93;;;3.03;;
37527;SDS011;23372;52.050;4.810;2023-02-28T04:19:07;9.17;;;3.13;;
37527;SDS011;23372;52.050;4.810;2023-02-28T04:21:41;8.93;;;3.07;;
37527;SDS011;23372;52.050;4.810;2023-02-28T04:24:09;7.77;;;3.47;;
37527;SDS011;23372;52.050;4.810;2023-02-28T04:26:39;7.17;;;3.37;;
37527;SDS011;23372;52.050;4.810;2023-02-28T04:29:06;5.27;;;3.20;;
37527;SDS011;23372;52.050;4.810;2023-02-28T04:31:32;7.03;;;3.90;;
37527;SDS011;23372;52.050;4.810;2023-02-28T04:33:59;6.70;;;3.47;;
37527;SDS011;23372;52.050;4.810;2023-02-28T04:36:25;7.30;;;3.43;;
37527;SDS011;23372;52.050;4.810;2023-02-28T04:38:51;10.30;;;4.17;;
37527;SDS011;23372;52.050;4.810;2023-02-28T04:41:16;7.50;;;3.93;;
37527;SDS011;23372;52.050;4.810;2023-02-28T04:43:42;8.77;;;3.60;;
37527;SDS011;23372;52.050;4.810;2023-02-28T04:46:08;8.90;;;4.00;;
37527;SDS011;23372;52.050;4.810;2023-02-28T04:48:35;10.40;;;4.17;;
37527;SDS011;23372;52.050;4.810;2023-02-28T04:53:33;6.83;;;4.37;;
37527;SDS011;23372;52.050;4.810;2023-02-28T04:55:59;5.97;;;3.70;;
37527;SDS011;23372;52.050;4.810;2023-02-28T04:58:25;7.90;;;4.43;;
37527;SDS011;23372;52.050;4.810;2023-02-28T05:00:51;7.90;;;3.93;;
37527;SDS011;23372;52.050;4.810;2023-02-28T05:03:18;8.43;;;4.57;;
37527;SDS011;23372;52.050;4.810;2023-02-28T05:05:43;8.20;;;4.20;;
37527;SDS011;23372;52.050;4.810;2023-02-28T05:08:09;8.00;;;4.63;;
37527;SDS011;23372;52.050;4.810;2023-02-28T05:10:36;7.57;;;4.63;;
37527;SDS011;23372;52.050;4.810;2023-02-28T05:13:02;7.53;;;4.83;;
37527;SDS011;23372;52.050;4.810;2023-02-28T05:15:27;8.73;;;4.97;;
37527;SDS011;23372;52.050;4.810;2023-02-28T05:17:53;9.03;;;4.50;;
37527;SDS011;23372;52.050;4.810;2023-02-28T05:20:19;11.80;;;6.43;;
37527;SDS011;23372;52.050;4.810;2023-02-28T05:22:46;10.83;;;5.43;;
37527;SDS011;23372;52.050;4.810;2023-02-28T05:25:12;14.10;;;4.70;;
37527;SDS011;23372;52.050;4.810;2023-02-28T05:27:41;10.63;;;6.10;;
37527;SDS011;23372;52.050;4.810;2023-02-28T05:30:07;10.77;;;5.90;;
37527;SDS011;23372;52.050;4.810;2023-02-28T05:32:35;13.50;;;5.80;;
37527;SDS011;23372;52.050;4.810;2023-02-28T05:35:01;17.27;;;8.00;;
37527;SDS011;23372;52.050;4.810;2023-02-28T05:37:27;10.13;;;5.87;;
37527;SDS011;23372;52.050;4.810;2023-02-28T05:39:53;10.60;;;5.97;;
37527;SDS011;23372;52.050;4.810;2023-02-28T05:42:18;13.03;;;5.73;;
37527;SDS011;23372;52.050;4.810;2023-02-28T05:44:44;10.10;;;5.93;;
37527;SDS011;23372;52.050;4.810;2023-02-28T05:47:09;7.87;;;4.97;;
37527;SDS011;23372;52.050;4.810;2023-02-28T05:49:35;9.70;;;4.40;;
37527;SDS011;23372;52.050;4.810;2023-02-28T05:52:00;7.50;;;4.47;;
37527;SDS011;23372;52.050;4.810;2023-02-28T05:54:26;8.07;;;4.40;;
37527;SDS011;23372;52.050;4.810;2023-02-28T05:56:51;7.17;;;4.13;;
37527;SDS011;23372;52.050;4.810;2023-02-28T05:59:17;9.03;;;4.07;;
37527;SDS011;23372;52.050;4.810;2023-02-28T06:01:43;9.67;;;4.07;;
37527;SDS011;23372;52.050;4.810;2023-02-28T06:04:13;7.30;;;4.23;;
37527;SDS011;23372;52.050;4.810;2023-02-28T06:06:42;5.93;;;4.07;;
37527;SDS011;23372;52.050;4.810;2023-02-28T06:09:08;10.30;;;4.03;;
37527;SDS011;23372;52.050;4.810;2023-02-28T06:11:34;9.20;;;4.70;;
37527;SDS011;23372;52.050;4.810;2023-02-28T06:14:00;7.77;;;4.60;;
37527;SDS011;23372;52.050;4.810;2023-02-28T06:16:27;6.63;;;3.80;;
37527;SDS011;23372;52.050;4.810;2023-02-28T06:18:54;7.17;;;4.03;;
37527;SDS011;23372;52.050;4.810;2023-02-28T06:21:22;6.43;;;3.93;;
37527;SDS011;23372;52.050;4.810;2023-02-28T06:23:48;7.27;;;4.23;;
37527;SDS011;23372;52.050;4.810;2023-02-28T06:26:13;8.87;;;3.83;;
37527;SDS011;23372;52.050;4.810;2023-02-28T06:28:39;7.93;;;3.30;;
37527;SDS011;23372;52.050;4.810;2023-02-28T06:31:08;7.03;;;3.70;;
37527;SDS011;23372;52.050;4.810;2023-02-28T06:33:35;5.30;;;3.40;;
37527;SDS011;23372;52.050;4.810;2023-02-28T06:36:02;7.60;;;3.13;;
37527;SDS011;23372;52.050;4.810;2023-02-28T06:38:28;6.80;;;3.97;;
37527;SDS011;23372;52.050;4.810;2023-02-28T06:40:54;15.23;;;4.80;;
37527;SDS011;23372;52.050;4.810;2023-02-28T06:43:21;6.33;;;3.40;;
37527;SDS011;23372;52.050;4.810;2023-02-28T06:45:48;8.80;;;4.27;;
37527;SDS011;23372;52.050;4.810;2023-02-28T06:48:14;8.67;;;4.77;;
37527;SDS011;23372;52.050;4.810;2023-02-28T06:50:40;7.33;;;4.20;;
37527;SDS011;23372;52.050;4.810;2023-02-28T06:53:05;9.60;;;4.47;;
37527;SDS011;23372;52.050;4.810;2023-02-28T06:55:31;12.03;;;4.80;;
37527;SDS011;23372;52.050;4.810;2023-02-28T06:57:57;8.57;;;4.57;;
37527;SDS011;23372;52.050;4.810;2023-02-28T07:00:23;7.83;;;4.30;;
37527;SDS011;23372;52.050;4.810;2023-02-28T07:02:49;9.77;;;4.80;;
37527;SDS011;23372;52.050;4.810;2023-02-28T07:05:15;7.30;;;4.30;;
37527;SDS011;23372;52.050;4.810;2023-02-28T07:07:41;9.73;;;5.03;;
37527;SDS011;23372;52.050;4.810;2023-02-28T07:10:09;9.17;;;4.90;;
37527;SDS011;23372;52.050;4.810;2023-02-28T07:12:36;8.20;;;4.87;;
37527;SDS011;23372;52.050;4.810;2023-02-28T07:15:02;7.33;;;4.30;;
37527;SDS011;23372;52.050;4.810;2023-02-28T07:17:29;10.30;;;4.60;;
37527;SDS011;23372;52.050;4.810;2023-02-28T07:19:54;8.00;;;4.23;;
37527;SDS011;23372;52.050;4.810;2023-02-28T07:22:20;6.97;;;4.10;;
37527;SDS011;23372;52.050;4.810;2023-02-28T07:24:45;6.53;;;4.00;;
37527;SDS011;23372;52.050;4.810;2023-02-28T07:27:11;6.03;;;3.80;;
37527;SDS011;23372;52.050;4.810;2023-02-28T07:29:36;8.43;;;3.93;;
37527;SDS011;23372;52.050;4.810;2023-02-28T07:32:03;7.33;;;3.83;;
37527;SDS011;23372;52.050;4.810;2023-02-28T07:34:29;5.60;;;3.60;;
37527;SDS011;23372;52.050;4.810;2023-02-28T07:36:54;7.63;;;4.20;;
37527;SDS011;23372;52.050;4.810;2023-02-28T07:39:21;7.53;;;4.07;;
37527;SDS011;23372;52.050;4.810;2023-02-28T07:41:47;7.47;;;4.20;;
37527;SDS011;23372;52.050;4.810;2023-02-28T07:44:12;9.10;;;4.70;;
37527;SDS011;23372;52.050;4.810;2023-02-28T07:46:38;10.60;;;5.33;;
37527;SDS011;23372;52.050;4.810;2023-02-28T07:49:04;8.87;;;4.17;;
37527;SDS011;23372;52.050;4.810;2023-02-28T07:51:30;9.83;;;5.00;;
37527;SDS011;23372;52.050;4.810;2023-02-28T07:53:56;8.63;;;4.37;;
37527;SDS011;23372;52.050;4.810;2023-02-28T07:56:22;7.90;;;4.63;;
37527;SDS011;23372;52.050;4.810;2023-02-28T07:58:48;7.87;;;4.70;;
37527;SDS011;23372;52.050;4.810;2023-02-28T08:01:13;7.07;;;4.00;;
37527;SDS011;23372;52.050;4.810;2023-02-28T08:03:39;6.53;;;4.67;;
37527;SDS011;23372;52.050;4.810;2023-02-28T08:06:06;9.57;;;4.43;;
37527;SDS011;23372;52.050;4.810;2023-02-28T08:08:33;9.83;;;4.53;;
37527;SDS011;23372;52.050;4.810;2023-02-28T08:10:59;10.73;;;5.67;;
37527;SDS011;23372;52.050;4.810;2023-02-28T08:13:26;9.13;;;5.17;;
37527;SDS011;23372;52.050;4.810;2023-02-28T08:15:52;7.90;;;5.20;;
37527;SDS011;23372;52.050;4.810;2023-02-28T08:18:19;8.87;;;5.17;;
37527;SDS011;23372;52.050;4.810;2023-02-28T08:20:45;10.13;;;6.50;;
37527;SDS011;23372;52.050;4.810;2023-02-28T08:23:11;9.67;;;6.17;;
37527;SDS011;23372;52.050;4.810;2023-02-28T08:25:36;9.43;;;6.27;;
37527;SDS011;23372;52.050;4.810;2023-02-28T08:28:02;9.83;;;5.53;;
37527;SDS011;23372;52.050;4.810;2023-02-28T08:30:28;8.40;;;5.57;;
37527;SDS011;23372;52.050;4.810;2023-02-28T08:32:53;7.03;;;5.10;;
37527;SDS011;23372;52.050;4.810;2023-02-28T08:35:20;10.03;;;5.43;;
37527;SDS011;23372;52.050;4.810;2023-02-28T08:37:47;11.87;;;6.53;;
37527;SDS011;23372;52.050;4.810;2023-02-28T08:40:13;9.73;;;6.63;;
37527;SDS011;23372;52.050;4.810;2023-02-28T08:42:43;11.57;;;6.17;;
37527;SDS011;23372;52.050;4.810;2023-02-28T08:45:09;9.80;;;6.80;;
37527;SDS011;23372;52.050;4.810;2023-02-28T08:47:35;10.10;;;6.37;;
37527;SDS011;23372;52.050;4.810;2023-02-28T08:50:01;11.13;;;6.33;;
37527;SDS011;23372;52.050;4.810;2023-02-28T08:52:26;9.80;;;6.00;;
37527;SDS011;23372;52.050;4.810;2023-02-28T08:54:52;9.53;;;6.07;;
37527;SDS011;23372;52.050;4.810;2023-02-28T08:57:18;9.70;;;6.00;;
37527;SDS011;23372;52.050;4.810;2023-02-28T08:59:43;11.43;;;6.83;;
37527;SDS011;23372;52.050;4.810;2023-02-28T09:02:10;10.87;;;6.33;;
37527;SDS011;23372;52.050;4.810;2023-02-28T09:04:38;8.80;;;5.27;;
37527;SDS011;23372;52.050;4.810;2023-02-28T09:07:03;11.50;;;5.70;;
37527;SDS011;23372;52.050;4.810;2023-02-28T09:09:29;8.80;;;4.90;;
37527;SDS011;23372;52.050;4.810;2023-02-28T09:11:57;10.33;;;6.03;;
37527;SDS011;23372;52.050;4.810;2023-02-28T09:14:23;12.33;;;6.13;;
37527;SDS011;23372;52.050;4.810;2023-02-28T09:16:48;10.30;;;6.47;;
37527;SDS011;23372;52.050;4.810;2023-02-28T09:19:14;9.47;;;6.10;;
37527;SDS011;23372;52.050;4.810;2023-02-28T09:21:40;11.17;;;6.43;;
37527;SDS011;23372;52.050;4.810;2023-02-28T09:24:05;11.20;;;6.47;;
37527;SDS011;23372;52.050;4.810;2023-02-28T09:26:31;10.50;;;6.43;;
37527;SDS011;23372;52.050;4.810;2023-02-28T09:28:57;11.47;;;6.00;;
37527;SDS011;23372;52.050;4.810;2023-02-28T09:31:25;12.33;;;6.13;;
37527;SDS011;23372;52.050;4.810;2023-02-28T09:33:53;8.33;;;5.87;;
37527;SDS011;23372;52.050;4.810;2023-02-28T09:36:21;9.93;;;6.37;;
37527;SDS011;23372;52.050;4.810;2023-02-28T09:38:48;18.63;;;6.63;;
37527;SDS011;23372;52.050;4.810;2023-02-28T09:41:17;11.27;;;5.43;;
37527;SDS011;23372;52.050;4.810;2023-02-28T09:43:46;13.13;;;6.23;;
37527;SDS011;23372;52.050;4.810;2023-02-28T09:48:56;11.43;;;6.97;;
37527;SDS011;23372;52.050;4.810;2023-02-28T09:54:19;11.83;;;6.83;;
37527;SDS011;23372;52.050;4.810;2023-02-28T09:57:13;13.30;;;6.37;;
37527;SDS011;23372;52.050;4.810;2023-02-28T10:05:49;13.60;;;6.83;;
37527;SDS011;23372;52.050;4.810;2023-02-28T10:08:19;8.47;;;5.97;;
37527;SDS011;23372;52.050;4.810;2023-02-28T10:10:51;11.87;;;5.90;;
37527;SDS011;23372;52.050;4.810;2023-02-28T10:16:01;9.93;;;5.53;;
37527;SDS011;23372;52.050;4.810;2023-02-28T10:24:23;6.40;;;4.50;;
37527;SDS011;23372;52.050;4.810;2023-02-28T10:26:59;7.27;;;4.00;;
37527;SDS011;23372;52.050;4.810;2023-02-28T10:29:27;5.70;;;3.77;;
37527;SDS011;23372;52.050;4.810;2023-02-28T10:31:57;5.77;;;3.23;;
37527;SDS011;23372;52.050;4.810;2023-02-28T10:34:25;6.13;;;3.73;;
37527;SDS011;23372;52.050;4.810;2023-02-28T10:36:51;4.50;;;3.23;;
37527;SDS011;23372;52.050;4.810;2023-02-28T10:42:03;4.80;;;2.90;;
37527;SDS011;23372;52.050;4.810;2023-02-28T10:44:29;4.43;;;3.07;;
37527;SDS011;23372;52.050;4.810;2023-02-28T10:46:54;4.03;;;2.90;;
37527;SDS011;23372;52.050;4.810;2023-02-28T10:49:22;3.70;;;2.33;;
37527;SDS011;23372;52.050;4.810;2023-02-28T10:51:57;3.50;;;2.47;;
37527;SDS011;23372;52.050;4.810;2023-02-28T10:54:27;5.13;;;2.70;;
37527;SDS011;23372;52.050;4.810;2023-02-28T10:59:50;3.77;;;2.27;;
37527;SDS011;23372;52.050;4.810;2023-02-28T11:05:20;4.63;;;2.03;;
37527;SDS011;23372;52.050;4.810;2023-02-28T11:07:55;3.53;;;2.10;;
37527;SDS011;23372;52.050;4.810;2023-02-28T11:10:28;4.13;;;2.50;;
37527;SDS011;23372;52.050;4.810;2023-02-28T11:12:59;2.77;;;2.27;;
37527;SDS011;23372;52.050;4.810;2023-02-28T11:15:27;3.80;;;2.03;;
37527;SDS011;23372;52.050;4.810;2023-02-28T11:20:30;3.50;;;2.10;;
37527;SDS011;23372;52.050;4.810;2023-02-28T11:22:58;5.77;;;1.93;;
37527;SDS011;23372;52.050;4.810;2023-02-28T11:25:29;3.60;;;2.10;;
37527;SDS011;23372;52.050;4.810;2023-02-28T11:27:58;3.00;;;2.00;;
37527;SDS011;23372;52.050;4.810;2023-02-28T11:33:07;2.40;;;1.70;;
37527;SDS011;23372;52.050;4.810;2023-02-28T11:36:02;4.03;;;2.07;;
37527;SDS011;23372;52.050;4.810;2023-02-28T11:38:33;3.20;;;2.00;;
37527;SDS011;23372;52.050;4.810;2023-02-28T11:49:18;3.33;;;2.10;;
37527;SDS011;23372;52.050;4.810;2023-02-28T11:54:59;3.03;;;1.90;;
37527;SDS011;23372;52.050;4.810;2023-02-28T11:57:53;3.13;;;1.90;;
37527;SDS011;23372;52.050;4.810;2023-02-28T12:00:40;3.90;;;2.07;;
37527;SDS011;23372;52.050;4.810;2023-02-28T12:03:39;2.90;;;1.93;;
37527;SDS011;23372;52.050;4.810;2023-02-28T12:06:22;3.80;;;2.00;;
37527;SDS011;23372;52.050;4.810;2023-02-28T12:12:22;3.63;;;2.03;;
37527;SDS011;23372;52.050;4.810;2023-02-28T12:20:37;3.03;;;1.93;;
37527;SDS011;23372;52.050;4.810;2023-02-28T12:23:19;3.47;;;1.90;;
37527;SDS011;23372;52.050;4.810;2023-02-28T12:26:07;2.83;;;1.70;;
37527;SDS011;23372;52.050;4.810;2023-02-28T12:28:53;2.10;;;1.70;;
37527;SDS011;23372;52.050;4.810;2023-02-28T12:31:24;3.43;;;2.17;;
37527;SDS011;23372;52.050;4.810;2023-02-28T12:33:56;3.17;;;1.73;;
37527;SDS011;23372;52.050;4.810;2023-02-28T12:36:28;3.83;;;2.20;;
37527;SDS011;23372;52.050;4.810;2023-02-28T12:38:55;4.10;;;2.23;;
37527;SDS011;23372;52.050;4.810;2023-02-28T12:41:45;4.20;;;2.30;;
37527;SDS011;23372;52.050;4.810;2023-02-28T12:44:19;2.00;;;1.80;;
37527;SDS011;23372;52.050;4.810;2023-02-28T12:46:51;3.33;;;2.17;;
37527;SDS011;23372;52.050;4.810;2023-02-28T12:49:23;3.73;;;2.30;;
37527;SDS011;23372;52.050;4.810;2023-02-28T12:51:56;4.73;;;2.27;;
37527;SDS011;23372;52.050;4.810;2023-02-28T12:56:56;3.57;;;2.03;;
37527;SDS011;23372;52.050;4.810;2023-02-28T13:10:23;4.33;;;2.10;;
37527;SDS011;23372;52.050;4.810;2023-02-28T13:12:50;7.17;;;2.00;;
37527;SDS011;23372;52.050;4.810;2023-02-28T13:17:53;3.63;;;2.67;;
37527;SDS011;23372;52.050;4.810;2023-02-28T13:20:24;2.80;;;2.10;;
37527;SDS011;23372;52.050;4.810;2023-02-28T13:22:51;2.87;;;2.00;;
37527;SDS011;23372;52.050;4.810;2023-02-28T13:27:47;3.10;;;1.70;;
37527;SDS011;23372;52.050;4.810;2023-02-28T13:36:08;1.90;;;1.40;;
37527;SDS011;23372;52.050;4.810;2023-02-28T13:38:44;3.73;;;1.70;;
37527;SDS011;23372;52.050;4.810;2023-02-28T13:44:03;2.53;;;2.10;;
37527;SDS011;23372;52.050;4.810;2023-02-28T13:46:34;2.67;;;1.97;;
37527;SDS011;23372;52.050;4.810;2023-02-28T13:52:02;1.97;;;1.40;;
37527;SDS011;23372;52.050;4.810;2023-02-28T13:54:39;2.63;;;1.63;;
37527;SDS011;23372;52.050;4.810;2023-02-28T14:09:45;3.47;;;1.73;;
37527;SDS011;23372;52.050;4.810;2023-02-28T14:11:48;2.53;;;1.70;;
37527;SDS011;23372;52.050;4.810;2023-02-28T14:17:02;2.10;;;1.60;;
37527;SDS011;23372;52.050;4.810;2023-02-28T14:19:30;2.93;;;1.90;;
37527;SDS011;23372;52.050;4.810;2023-02-28T14:24:42;3.40;;;2.03;;
37527;SDS011;23372;52.050;4.810;2023-02-28T14:30:41;2.43;;;1.73;;
37527;SDS011;23372;52.050;4.810;2023-02-28T14:35:43;3.37;;;1.87;;
37527;SDS011;23372;52.050;4.810;2023-02-28T14:38:46;2.77;;;1.73;;
37527;SDS011;23372;52.050;4.810;2023-02-28T14:41:22;4.80;;;1.83;;
37527;SDS011;23372;52.050;4.810;2023-02-28T14:43:50;3.30;;;1.90;;
37527;SDS011;23372;52.050;4.810;2023-02-28T14:46:18;2.50;;;1.70;;
37527;SDS011;23372;52.050;4.810;2023-02-28T14:48:46;2.60;;;1.77;;
37527;SDS011;23372;52.050;4.810;2023-02-28T14:51:17;2.87;;;1.73;;
37527;SDS011;23372;52.050;4.810;2023-02-28T14:53:46;3.67;;;2.17;;
37527;SDS011;23372;52.050;4.810;2023-02-28T14:56:22;3.90;;;1.80;;
37527;SDS011;23372;52.050;4.810;2023-02-28T14:58:55;3.40;;;1.77;;
37527;SDS011;23372;52.050;4.810;2023-02-28T15:01:21;2.73;;;1.80;;
37527;SDS011;23372;52.050;4.810;2023-02-28T15:03:48;5.27;;;1.97;;
37527;SDS011;23372;52.050;4.810;2023-02-28T15:06:24;4.67;;;2.00;;
37527;SDS011;23372;52.050;4.810;2023-02-28T15:09:06;3.47;;;1.50;;
37527;SDS011;23372;52.050;4.810;2023-02-28T15:11:50;2.67;;;1.70;;
37527;SDS011;23372;52.050;4.810;2023-02-28T15:14:17;3.73;;;2.03;;
37527;SDS011;23372;52.050;4.810;2023-02-28T15:16:44;3.00;;;2.03;;
37527;SDS011;23372;52.050;4.810;2023-02-28T15:19:16;2.60;;;1.80;;
37527;SDS011;23372;52.050;4.810;2023-02-28T15:21:49;2.50;;;1.80;;
37527;SDS011;23372;52.050;4.810;2023-02-28T15:24:37;2.80;;;1.77;;
37527;SDS011;23372;52.050;4.810;2023-02-28T15:27:07;2.23;;;1.60;;
37527;SDS011;23372;52.050;4.810;2023-02-28T15:29:42;3.53;;;1.77;;
37527;SDS011;23372;52.050;4.810;2023-02-28T15:34:50;2.90;;;2.00;;
37527;SDS011;23372;52.050;4.810;2023-02-28T15:37:26;4.73;;;2.77;;
37527;SDS011;23372;52.050;4.810;2023-02-28T15:40:26;4.53;;;2.97;;
37527;SDS011;23372;52.050;4.810;2023-02-28T15:42:59;4.90;;;3.30;;
37527;SDS011;23372;52.050;4.810;2023-02-28T15:45:43;6.23;;;3.20;;
37527;SDS011;23372;52.050;4.810;2023-02-28T15:48:16;5.10;;;3.07;;
37527;SDS011;23372;52.050;4.810;2023-02-28T15:50:55;5.93;;;2.80;;
37527;SDS011;23372;52.050;4.810;2023-02-28T15:53:34;5.67;;;3.10;;
37527;SDS011;23372;52.050;4.810;2023-02-28T15:56:06;6.77;;;3.40;;
37527;SDS011;23372;52.050;4.810;2023-02-28T15:58:47;5.13;;;3.10;;
37527;SDS011;23372;52.050;4.810;2023-02-28T16:03:45;3.50;;;2.93;;
37527;SDS011;23372;52.050;4.810;2023-02-28T16:08:41;4.80;;;2.87;;
37527;SDS011;23372;52.050;4.810;2023-02-28T16:11:10;4.87;;;3.23;;
37527;SDS011;23372;52.050;4.810;2023-02-28T16:13:36;8.13;;;3.20;;
37527;SDS011;23372;52.050;4.810;2023-02-28T16:16:02;4.90;;;3.50;;
37527;SDS011;23372;52.050;4.810;2023-02-28T16:18:28;5.60;;;3.20;;
37527;SDS011;23372;52.050;4.810;2023-02-28T16:20:53;4.73;;;3.50;;
37527;SDS011;23372;52.050;4.810;2023-02-28T16:23:19;6.43;;;3.57;;
37527;SDS011;23372;52.050;4.810;2023-02-28T16:25:45;5.20;;;3.13;;
37527;SDS011;23372;52.050;4.810;2023-02-28T16:28:20;5.47;;;3.23;;
37527;SDS011;23372;52.050;4.810;2023-02-28T16:30:56;7.30;;;3.73;;
37527;SDS011;23372;52.050;4.810;2023-02-28T16:33:21;5.60;;;3.57;;
37527;SDS011;23372;52.050;4.810;2023-02-28T16:35:47;6.13;;;3.27;;
37527;SDS011;23372;52.050;4.810;2023-02-28T16:38:13;4.70;;;3.10;;
37527;SDS011;23372;52.050;4.810;2023-02-28T16:40:38;5.27;;;3.53;;
37527;SDS011;23372;52.050;4.810;2023-02-28T16:43:05;7.23;;;3.60;;
37527;SDS011;23372;52.050;4.810;2023-02-28T16:45:34;5.37;;;4.17;;
37527;SDS011;23372;52.050;4.810;2023-02-28T16:48:00;5.03;;;3.47;;
37527;SDS011;23372;52.050;4.810;2023-02-28T16:50:27;8.60;;;3.60;;
37527;SDS011;23372;52.050;4.810;2023-02-28T16:52:54;9.37;;;3.90;;
37527;SDS011;23372;52.050;4.810;2023-02-28T16:55:20;6.10;;;3.50;;
37527;SDS011;23372;52.050;4.810;2023-02-28T16:57:49;7.27;;;3.70;;
37527;SDS011;23372;52.050;4.810;2023-02-28T17:00:18;7.53;;;3.87;;
37527;SDS011;23372;52.050;4.810;2023-02-28T17:02:44;4.43;;;3.23;;
37527;SDS011;23372;52.050;4.810;2023-02-28T17:05:13;6.50;;;4.20;;
37527;SDS011;23372;52.050;4.810;2023-02-28T17:07:40;3.47;;;3.07;;
37527;SDS011;23372;52.050;4.810;2023-02-28T17:10:13;10.43;;;3.47;;
37527;SDS011;23372;52.050;4.810;2023-02-28T17:12:39;6.43;;;3.60;;
37527;SDS011;23372;52.050;4.810;2023-02-28T17:15:04;4.97;;;3.70;;
37527;SDS011;23372;52.050;4.810;2023-02-28T17:17:31;6.93;;;3.77;;
37527;SDS011;23372;52.050;4.810;2023-02-28T17:19:57;6.97;;;3.87;;
37527;SDS011;23372;52.050;4.810;2023-02-28T17:22:23;6.20;;;3.47;;
37527;SDS011;23372;52.050;4.810;2023-02-28T17:24:50;4.33;;;3.50;;
37527;SDS011;23372;52.050;4.810;2023-02-28T17:27:16;9.13;;;5.70;;
37527;SDS011;23372;52.050;4.810;2023-02-28T17:29:42;8.63;;;5.00;;
37527;SDS011;23372;52.050;4.810;2023-02-28T17:32:07;8.30;;;4.63;;
37527;SDS011;23372;52.050;4.810;2023-02-28T17:34:33;5.77;;;4.23;;